createdAt,value
2023-03-20T00:00:53.533Z,2.57
2023-03-20T00:01:56.798Z,2.58
2023-03-20T00:02:59.581Z,2.54
2023-03-20T00:04:05.765Z,2.49
2023-03-20T00:05:20.431Z,2.49
2023-03-20T00:06:26.811Z,2.45
2023-03-20T00:07:29.862Z,2.44
2023-03-20T00:08:33.226Z,2.39
2023-03-20T00:09:35.983Z,2.40
2023-03-20T00:10:41.340Z,2.35
2023-03-20T00:11:49.133Z,2.32
2023-03-20T00:12:52.325Z,2.36
2023-03-20T00:13:58.813Z,2.38
2023-03-20T00:15:02.828Z,2.37
2023-03-20T00:16:05.703Z,2.37
2023-03-20T00:17:13.091Z,2.34
2023-03-20T00:18:18.871Z,2.33
2023-03-20T00:19:30.894Z,2.30
2023-03-20T00:20:34.409Z,2.27
2023-03-20T00:21:37.623Z,2.23
2023-03-20T00:22:41.649Z,2.23
2023-03-20T00:23:44.978Z,2.21
2023-03-20T00:24:48.857Z,2.20
2023-03-20T00:26:14.587Z,2.20
2023-03-20T00:27:18.911Z,2.18
2023-03-20T00:28:24.215Z,2.15
2023-03-20T00:29:29.048Z,2.10
2023-03-20T00:30:31.435Z,2.03
2023-03-20T00:31:37.675Z,2.05
2023-03-20T00:32:41.124Z,2.04
2023-03-20T00:33:43.441Z,2.02
2023-03-20T00:34:46.460Z,1.98
2023-03-20T00:35:49.562Z,2.00
2023-03-20T00:36:54.991Z,1.94
2023-03-20T00:37:57.741Z,1.88
2023-03-20T00:39:05.598Z,1.82
2023-03-20T00:40:09.489Z,1.79
2023-03-20T00:41:26.658Z,1.65
2023-03-20T00:42:29.791Z,1.66
2023-03-20T00:43:33.095Z,1.66
2023-03-20T00:44:38.411Z,1.72
2023-03-20T00:45:44.912Z,1.69
2023-03-20T00:46:49.979Z,1.67
2023-03-20T00:47:53.570Z,1.68
2023-03-20T00:48:58.324Z,1.65
2023-03-20T00:50:02.096Z,1.70
2023-03-20T00:51:05.785Z,1.66
2023-03-20T00:52:13.353Z,1.63
2023-03-20T00:53:15.975Z,1.64
2023-03-20T00:54:19.141Z,1.66
2023-03-20T00:55:23.724Z,1.68
2023-03-20T00:56:34.249Z,1.67
2023-03-20T00:57:40.324Z,1.66
2023-03-20T00:58:42.554Z,1.70
2023-03-20T00:59:50.607Z,1.76
2023-03-20T01:00:53.836Z,1.79
2023-03-20T01:01:57.407Z,1.80
2023-03-20T01:03:01.167Z,1.86
2023-03-20T01:04:06.265Z,1.88
2023-03-20T01:05:09.504Z,1.90
2023-03-20T01:06:13.308Z,1.91
2023-03-20T01:07:15.860Z,1.89
2023-03-20T01:08:20.877Z,1.91
2023-03-20T01:09:25.375Z,1.98
2023-03-20T01:10:30.532Z,2.05
2023-03-20T01:11:33.082Z,2.06
2023-03-20T01:12:35.696Z,2.06
2023-03-20T01:13:39.387Z,2.02
2023-03-20T01:14:43.360Z,2.00
2023-03-20T01:15:47.341Z,1.97
2023-03-20T01:16:50.933Z,1.98
2023-03-20T01:17:54.963Z,2.00
2023-03-20T01:18:58.459Z,2.03
2023-03-20T01:20:00.871Z,2.03
2023-03-20T01:21:04.621Z,2.07
2023-03-20T01:22:09.114Z,2.09
2023-03-20T01:23:12.787Z,2.10
2023-03-20T01:24:18.691Z,2.09
2023-03-20T01:25:21.570Z,2.10
2023-03-20T01:26:39.770Z,2.12
2023-03-20T01:27:47.508Z,2.11
2023-03-20T01:28:51.478Z,2.11
2023-03-20T01:29:54.993Z,2.13
2023-03-20T01:31:00.563Z,2.11
2023-03-20T01:32:08.532Z,2.15
2023-03-20T01:33:14.158Z,2.19
2023-03-20T01:34:18.756Z,2.19
2023-03-20T01:35:25.929Z,2.20
2023-03-20T01:36:28.997Z,2.20
2023-03-20T01:37:34.634Z,2.22
2023-03-20T01:38:42.825Z,2.24
2023-03-20T01:39:46.434Z,2.27
2023-03-20T01:41:00.893Z,2.29
2023-03-20T01:42:06.295Z,2.30
2023-03-20T01:43:10.982Z,2.34
2023-03-20T01:44:25.866Z,2.36
2023-03-20T01:45:33.115Z,2.34
2023-03-20T01:46:38.349Z,2.31
2023-03-20T01:47:43.527Z,2.26
2023-03-20T01:48:54.204Z,2.27
2023-03-20T01:50:16.042Z,2.24
2023-03-20T01:51:20.943Z,2.26
2023-03-20T01:52:24.948Z,2.26
2023-03-20T01:53:31.150Z,2.31
2023-03-20T01:54:37.477Z,2.35
2023-03-20T01:55:44.836Z,2.32
2023-03-20T01:56:53.194Z,2.26
2023-03-20T01:57:58.221Z,2.23
2023-03-20T01:59:06.834Z,2.25
2023-03-20T02:00:13.903Z,2.20
2023-03-20T02:01:19.139Z,2.19
2023-03-20T02:02:26.098Z,2.18
2023-03-20T02:03:31.199Z,2.17
2023-03-20T02:04:41.274Z,2.17
2023-03-20T02:05:46.818Z,2.20
2023-03-20T02:06:50.117Z,2.18
2023-03-20T02:08:05.842Z,2.16
2023-03-20T02:09:09.424Z,2.15
2023-03-20T02:10:16.234Z,2.14
2023-03-20T02:11:27.459Z,2.09
2023-03-20T02:12:32.110Z,2.11
2023-03-20T02:13:35.636Z,2.12
2023-03-20T02:14:39.523Z,2.15
2023-03-20T02:16:10.772Z,2.14
2023-03-20T02:17:34.101Z,2.14
2023-03-20T02:18:40.286Z,2.14
2023-03-20T02:20:04.720Z,2.17
2023-03-20T02:21:26.326Z,2.17
2023-03-20T02:22:30.733Z,2.19
2023-03-20T02:23:51.324Z,2.16
2023-03-20T02:25:07.340Z,2.20
2023-03-20T02:26:15.969Z,2.23
2023-03-20T02:27:36.345Z,2.20
2023-03-20T02:28:49.338Z,2.18
2023-03-20T02:30:10.749Z,2.17
2023-03-20T02:31:36.130Z,2.16
2023-03-20T02:32:50.572Z,2.11
2023-03-20T02:33:56.285Z,2.11
2023-03-20T02:35:07.176Z,2.13
2023-03-20T02:36:26.738Z,2.10
2023-03-20T02:37:50.672Z,2.11
2023-03-20T02:38:55.445Z,2.05
2023-03-20T02:40:01.487Z,2.05
2023-03-20T02:41:14.960Z,2.04
2023-03-20T02:42:34.361Z,1.91
2023-03-20T02:43:51.634Z,1.94
2023-03-20T02:44:59.469Z,1.96
2023-03-20T02:46:12.579Z,1.94
2023-03-20T02:47:28.982Z,1.94
2023-03-20T02:48:47.835Z,1.94
2023-03-20T02:49:52.368Z,1.93
2023-03-20T02:50:57.754Z,1.97
2023-03-20T02:52:02.762Z,2.01
2023-03-20T02:53:11.330Z,2.02
2023-03-20T02:54:17.396Z,2.05
2023-03-20T02:55:29.460Z,2.07
2023-03-20T02:56:40.260Z,2.05
2023-03-20T02:57:44.507Z,2.03
2023-03-20T02:59:06.574Z,1.97
2023-03-20T03:00:11.216Z,1.93
2023-03-20T03:01:20.376Z,1.90
2023-03-20T03:02:33.329Z,1.88
2023-03-20T03:03:39.897Z,1.78
2023-03-20T03:04:54.071Z,1.78
2023-03-20T03:06:00.589Z,1.80
2023-03-20T03:07:05.152Z,1.79
2023-03-20T03:08:13.516Z,1.78
2023-03-20T03:09:18.440Z,1.71
2023-03-20T03:10:28.613Z,1.76
2023-03-20T03:11:34.722Z,1.73
2023-03-20T03:12:42.191Z,1.70
2023-03-20T03:13:46.735Z,1.62
2023-03-20T03:14:51.348Z,1.62
2023-03-20T03:15:59.163Z,1.56
2023-03-20T03:17:08.028Z,1.57
2023-03-20T03:18:15.357Z,1.56
2023-03-20T03:19:23.471Z,1.55
2023-03-20T03:20:32.971Z,1.46
2023-03-20T03:21:37.803Z,1.42
2023-03-20T03:22:41.057Z,1.40
2023-03-20T03:23:47.469Z,1.44
2023-03-20T03:24:53.307Z,1.38
2023-03-20T03:25:59.372Z,1.34
2023-03-20T03:27:05.161Z,1.32
2023-03-20T03:28:11.226Z,1.31
2023-03-20T03:29:15.613Z,1.33
2023-03-20T03:30:21.823Z,1.32
2023-03-20T03:31:25.485Z,1.30
2023-03-20T03:32:31.994Z,1.32
2023-03-20T03:33:37.449Z,1.32
2023-03-20T03:34:40.678Z,1.29
2023-03-20T03:35:46.895Z,1.28
2023-03-20T03:36:51.253Z,1.29
2023-03-20T03:37:58.560Z,1.30
2023-03-20T03:39:03.726Z,1.32
2023-03-20T03:40:15.343Z,1.30
2023-03-20T03:41:22.753Z,1.30
2023-03-20T03:42:35.625Z,1.27
2023-03-20T03:43:46.442Z,1.21
2023-03-20T03:44:51.543Z,1.21
2023-03-20T03:46:01.967Z,1.22
2023-03-20T03:47:08.556Z,1.23
2023-03-20T03:48:16.644Z,1.27
2023-03-20T03:49:23.592Z,1.26
2023-03-20T03:50:34.910Z,1.26
2023-03-20T03:51:40.251Z,1.29
2023-03-20T03:52:48.224Z,1.30
2023-03-20T03:53:56.580Z,1.34
2023-03-20T03:55:01.672Z,1.32
2023-03-20T03:56:11.354Z,1.33
2023-03-20T03:57:16.993Z,1.29
2023-03-20T03:58:24.130Z,1.30
2023-03-20T03:59:38.352Z,1.29
2023-03-20T04:00:43.090Z,1.25
2023-03-20T04:01:46.888Z,1.24
2023-03-20T04:02:52.002Z,1.25
2023-03-20T04:04:01.493Z,1.22
2023-03-20T04:05:07.282Z,1.22
2023-03-20T04:06:13.843Z,1.22
2023-03-20T04:07:17.159Z,1.25
2023-03-20T04:08:21.241Z,1.25
2023-03-20T04:09:24.577Z,1.20
2023-03-20T04:10:30.769Z,1.21
2023-03-20T04:11:38.030Z,1.24
2023-03-20T04:12:44.200Z,1.21
2023-03-20T04:13:48.969Z,1.18
2023-03-20T04:14:51.346Z,1.19
2023-03-20T04:15:55.783Z,1.24
2023-03-20T04:17:00.435Z,1.28
2023-03-20T04:18:05.091Z,1.32
2023-03-20T04:19:08.156Z,1.31
2023-03-20T04:20:13.194Z,1.26
2023-03-20T04:21:16.298Z,1.22
2023-03-20T04:22:21.835Z,1.21
2023-03-20T04:23:25.396Z,1.18
2023-03-20T04:24:28.618Z,1.15
2023-03-20T04:25:31.707Z,1.16
2023-03-20T04:26:35.015Z,1.20
2023-03-20T04:27:38.569Z,1.28
2023-03-20T04:28:45.512Z,1.35
2023-03-20T04:30:06.561Z,1.41
2023-03-20T04:31:19.347Z,1.48
2023-03-20T04:32:24.731Z,1.52
2023-03-20T04:33:48.690Z,1.56
2023-03-20T04:35:10.158Z,1.62
2023-03-20T04:36:14.584Z,1.70
2023-03-20T04:37:17.820Z,1.88
2023-03-20T04:38:23.653Z,2.28
2023-03-20T04:39:33.025Z,2.81
2023-03-20T04:40:36.708Z,3.47
2023-03-20T04:41:41.409Z,4.03
2023-03-20T04:42:44.643Z,4.17
2023-03-20T04:43:47.194Z,4.12
2023-03-20T04:44:50.367Z,4.37
2023-03-20T04:45:53.779Z,4.70
2023-03-20T04:46:59.253Z,5.03
2023-03-20T04:48:03.433Z,5.48
2023-03-20T04:49:07.823Z,6.06
2023-03-20T04:50:12.230Z,6.70
2023-03-20T04:51:16.385Z,6.84
2023-03-20T04:52:21.598Z,7.10
2023-03-20T04:53:27.071Z,7.35
2023-03-20T04:54:32.028Z,7.40
2023-03-20T04:55:35.521Z,7.82
2023-03-20T04:56:38.010Z,8.23
2023-03-20T04:57:45.766Z,8.49
2023-03-20T04:58:48.875Z,9.05
2023-03-20T04:59:56.011Z,9.61
2023-03-20T05:00:59.334Z,9.94
2023-03-20T05:02:03.255Z,10.06
2023-03-20T05:03:08.006Z,10.35
2023-03-20T05:04:11.752Z,10.85
2023-03-20T05:05:15.862Z,11.08
2023-03-20T05:06:20.682Z,10.89
2023-03-20T05:07:24.803Z,10.60
2023-03-20T05:08:30.092Z,10.41
2023-03-20T05:09:35.182Z,10.28
2023-03-20T05:10:40.609Z,10.21
2023-03-20T05:11:51.707Z,10.49
2023-03-20T05:14:10.217Z,10.72
2023-03-20T05:15:29.898Z,10.51
2023-03-20T05:16:48.315Z,10.25
2023-03-20T05:18:02.709Z,9.79
2023-03-20T05:19:25.438Z,9.44
2023-03-20T05:20:45.645Z,9.78
2023-03-20T05:21:51.581Z,10.10
2023-03-20T05:22:57.050Z,10.52
2023-03-20T05:24:06.760Z,10.99
2023-03-20T05:25:27.454Z,11.62
2023-03-20T05:26:46.720Z,11.93
2023-03-20T05:27:56.930Z,11.59
2023-03-20T05:29:01.882Z,11.56
2023-03-20T05:30:23.880Z,11.74
2023-03-20T05:31:38.043Z,12.63
2023-03-20T05:32:58.964Z,13.09
2023-03-20T05:34:08.237Z,12.67
2023-03-20T05:35:22.195Z,11.85
2023-03-20T05:36:27.686Z,12.11
2023-03-20T05:37:35.568Z,12.62
2023-03-20T05:38:57.618Z,12.91
2023-03-20T05:40:20.017Z,11.71
2023-03-20T05:41:25.251Z,10.53
2023-03-20T05:42:35.233Z,10.04
2023-03-20T05:43:42.809Z,9.53
2023-03-20T05:44:48.839Z,8.76
2023-03-20T05:45:54.164Z,8.43
2023-03-20T05:47:15.139Z,8.77
2023-03-20T05:48:35.301Z,9.60
2023-03-20T05:49:49.228Z,10.27
2023-03-20T05:50:54.291Z,10.43
2023-03-20T05:51:59.573Z,10.11
2023-03-20T05:53:17.161Z,9.85
2023-03-20T05:54:28.596Z,9.98
2023-03-20T05:55:37.208Z,9.73
2023-03-20T05:56:59.320Z,9.57
2023-03-20T05:58:13.465Z,10.12
2023-03-20T05:59:27.317Z,10.95
2023-03-20T06:00:48.487Z,11.47
2023-03-20T06:02:09.681Z,12.19
2023-03-20T06:03:16.059Z,13.09
2023-03-20T06:04:21.402Z,13.69
2023-03-20T06:05:35.949Z,14.31
2023-03-20T06:06:39.022Z,14.75
2023-03-20T06:07:42.647Z,14.57
2023-03-20T06:08:48.075Z,15.08
2023-03-20T06:09:51.893Z,14.72
2023-03-20T06:10:57.084Z,14.74
2023-03-20T06:12:00.818Z,15.25
2023-03-20T06:13:04.291Z,16.19
2023-03-20T06:14:09.020Z,16.64
2023-03-20T06:15:14.249Z,16.62
2023-03-20T06:16:19.359Z,16.00
2023-03-20T06:17:25.401Z,15.55
2023-03-20T06:18:30.559Z,15.36
2023-03-20T06:19:34.931Z,14.87
2023-03-20T06:20:39.412Z,14.58
2023-03-20T06:21:42.747Z,14.07
2023-03-20T06:22:46.990Z,14.45
2023-03-20T06:23:52.363Z,14.99
2023-03-20T06:24:59.045Z,16.28
2023-03-20T06:26:04.237Z,16.66
2023-03-20T06:27:09.381Z,17.94
2023-03-20T06:28:12.270Z,18.74
2023-03-20T06:29:16.996Z,18.73
2023-03-20T06:30:23.506Z,18.03
2023-03-20T06:31:26.935Z,17.40
2023-03-20T06:32:30.185Z,16.04
2023-03-20T06:33:35.170Z,14.78
2023-03-20T06:34:39.077Z,13.67
2023-03-20T06:35:44.234Z,12.78
2023-03-20T06:36:48.308Z,12.15
2023-03-20T06:37:53.410Z,11.80
2023-03-20T06:38:57.588Z,11.67
2023-03-20T06:40:01.509Z,13.38
2023-03-20T06:41:05.628Z,15.52
2023-03-20T06:42:08.960Z,17.21
2023-03-20T06:43:14.396Z,17.91
2023-03-20T06:44:20.760Z,16.92
2023-03-20T06:45:25.709Z,15.69
2023-03-20T06:46:33.341Z,15.09
2023-03-20T06:47:36.548Z,15.32
2023-03-20T06:48:42.738Z,15.69
2023-03-20T06:49:46.426Z,15.66
2023-03-20T06:50:50.175Z,14.39
2023-03-20T06:51:54.545Z,13.27
2023-03-20T06:53:01.177Z,12.40
2023-03-20T06:54:08.499Z,12.65
2023-03-20T06:55:11.296Z,13.48
2023-03-20T06:56:14.798Z,14.27
2023-03-20T06:57:19.759Z,14.60
2023-03-20T06:58:23.906Z,13.99
2023-03-20T06:59:27.508Z,12.91
2023-03-20T07:00:35.986Z,13.37
2023-03-20T07:01:41.074Z,15.02
2023-03-20T07:02:44.361Z,16.47
2023-03-20T07:03:49.045Z,18.06
2023-03-20T07:04:55.069Z,18.47
2023-03-20T07:06:01.710Z,19.29
2023-03-20T07:07:06.175Z,20.01
2023-03-20T07:08:11.243Z,20.81
2023-03-20T07:09:14.578Z,21.59
2023-03-20T07:10:17.415Z,21.91
2023-03-20T07:11:22.849Z,21.75
2023-03-20T07:12:28.195Z,21.60
2023-03-20T07:13:33.778Z,21.30
2023-03-20T07:15:00.450Z,22.02
2023-03-20T07:16:05.240Z,22.64
2023-03-20T07:17:10.834Z,23.28
2023-03-20T07:18:14.825Z,23.64
2023-03-20T07:19:19.026Z,23.42
2023-03-20T07:20:23.392Z,22.63
2023-03-20T07:21:27.051Z,21.58
2023-03-20T07:22:35.101Z,21.96
2023-03-20T07:23:40.370Z,21.93
2023-03-20T07:24:47.420Z,21.24
2023-03-20T07:25:51.108Z,21.92
2023-03-20T07:26:55.163Z,23.00
2023-03-20T07:27:58.410Z,22.31
2023-03-20T07:29:01.586Z,21.59
2023-03-20T07:30:06.602Z,22.86
2023-03-20T07:31:11.518Z,22.98
2023-03-20T07:32:14.708Z,23.82
2023-03-20T07:33:22.461Z,23.96
2023-03-20T07:34:25.963Z,24.50
2023-03-20T07:35:30.406Z,25.09
2023-03-20T07:36:33.922Z,25.19
2023-03-20T07:37:36.418Z,25.24
2023-03-20T07:38:40.143Z,25.00
2023-03-20T07:39:46.066Z,25.15
2023-03-20T07:40:53.844Z,26.08
2023-03-20T07:41:57.157Z,26.16
2023-03-20T07:43:01.402Z,26.18
2023-03-20T07:44:11.991Z,26.29
2023-03-20T07:45:19.831Z,25.59
2023-03-20T07:46:23.642Z,25.93
2023-03-20T07:47:26.790Z,25.83
2023-03-20T07:48:29.889Z,25.45
2023-03-20T07:49:35.686Z,25.42
2023-03-20T07:50:38.973Z,24.71
2023-03-20T07:51:41.716Z,24.27
2023-03-20T07:52:52.895Z,23.68
2023-03-20T07:53:57.297Z,24.72
2023-03-20T07:55:00.713Z,24.88
2023-03-20T07:56:03.017Z,24.44
2023-03-20T07:57:09.700Z,24.17
2023-03-20T07:58:13.103Z,22.70
2023-03-20T07:59:18.264Z,21.57
2023-03-20T08:00:21.990Z,21.30
2023-03-20T08:01:24.850Z,22.03
2023-03-20T08:02:29.493Z,23.62
2023-03-20T08:03:32.836Z,24.45
2023-03-20T08:04:37.384Z,23.82
2023-03-20T08:05:40.877Z,24.05
2023-03-20T08:06:43.220Z,24.37
2023-03-20T08:07:46.576Z,23.69
2023-03-20T08:08:53.459Z,24.58
2023-03-20T08:09:56.862Z,24.41
2023-03-20T08:11:00.256Z,24.78
2023-03-20T08:12:03.768Z,24.48
2023-03-20T08:13:07.275Z,24.27
2023-03-20T08:14:30.348Z,22.78
2023-03-20T08:15:34.221Z,22.39
2023-03-20T08:16:37.771Z,23.49
2023-03-20T08:17:44.308Z,24.00
2023-03-20T08:18:47.674Z,24.57
2023-03-20T08:19:50.837Z,24.84
2023-03-20T08:20:54.046Z,24.79
2023-03-20T08:21:58.404Z,24.02
2023-03-20T08:23:01.444Z,23.88
2023-03-20T08:24:04.649Z,23.79
2023-03-20T08:25:09.036Z,23.26
2023-03-20T08:26:13.930Z,23.10
2023-03-20T08:28:21.621Z,23.78
2023-03-20T08:29:24.962Z,23.59
2023-03-20T08:30:28.340Z,23.66
2023-03-20T08:31:33.219Z,23.57
2023-03-20T08:32:38.056Z,23.93
2023-03-20T08:33:41.517Z,23.10
2023-03-20T08:34:45.249Z,23.28
2023-03-20T08:35:58.578Z,22.64
2023-03-20T08:37:02.675Z,22.53
2023-03-20T08:38:05.915Z,22.19
2023-03-20T08:39:09.579Z,21.90
2023-03-20T08:40:12.884Z,21.28
2023-03-20T08:41:17.280Z,20.76
2023-03-20T08:42:21.499Z,21.28
2023-03-20T08:43:24.801Z,20.70
2023-03-20T08:44:27.943Z,20.24
2023-03-20T08:45:31.243Z,20.08
2023-03-20T08:46:35.714Z,19.40
2023-03-20T08:47:40.694Z,19.49
2023-03-20T08:48:43.406Z,19.63
2023-03-20T08:49:48.554Z,19.03
2023-03-20T08:50:51.803Z,18.44
2023-03-20T08:51:54.096Z,18.04
2023-03-20T08:52:57.141Z,17.56
2023-03-20T08:53:59.718Z,17.51
2023-03-20T08:55:02.705Z,17.14
2023-03-20T08:56:05.791Z,17.39
2023-03-20T08:57:09.645Z,17.84
2023-03-20T08:58:12.822Z,17.91
2023-03-20T08:59:16.098Z,17.45
2023-03-20T09:00:19.825Z,17.71
2023-03-20T09:01:26.932Z,17.18
2023-03-20T09:02:31.431Z,17.20
2023-03-20T09:03:35.443Z,16.92
2023-03-20T09:04:38.580Z,17.00
2023-03-20T09:05:42.666Z,17.18
2023-03-20T09:06:45.757Z,16.72
2023-03-20T09:07:48.100Z,16.76
2023-03-20T09:08:52.374Z,16.56
2023-03-20T09:09:55.707Z,16.75
2023-03-20T09:10:58.932Z,17.07
2023-03-20T09:12:01.669Z,17.35
2023-03-20T09:13:23.455Z,17.26
2023-03-20T09:14:10.046Z,17.39
2023-03-20T09:15:12.598Z,17.42
2023-03-20T09:16:15.984Z,17.51
2023-03-20T09:17:21.090Z,17.61
2023-03-20T09:18:25.813Z,17.30
2023-03-20T09:19:31.762Z,17.21
2023-03-20T09:20:35.741Z,16.96
2023-03-20T09:21:40.515Z,17.00
2023-03-20T09:22:45.589Z,16.66
2023-03-20T09:23:47.743Z,16.58
2023-03-20T09:24:50.858Z,16.40
2023-03-20T09:25:53.812Z,16.47
2023-03-20T09:27:01.229Z,16.53
2023-03-20T09:28:04.335Z,16.82
2023-03-20T09:29:07.758Z,17.08
2023-03-20T09:30:13.280Z,16.74
2023-03-20T09:31:16.597Z,16.70
2023-03-20T09:32:19.807Z,16.24
2023-03-20T09:33:22.867Z,15.59
2023-03-20T09:34:25.619Z,15.87
2023-03-20T09:35:28.315Z,16.17
2023-03-20T09:36:30.569Z,16.16
2023-03-20T09:37:33.611Z,16.36
2023-03-20T09:38:36.876Z,16.52
2023-03-20T09:39:39.076Z,16.47
2023-03-20T09:40:50.986Z,16.24
2023-03-20T09:41:57.604Z,16.27
2023-03-20T09:43:01.961Z,16.08
2023-03-20T09:44:06.094Z,16.21
2023-03-20T09:45:11.617Z,15.87
2023-03-20T09:46:22.392Z,16.25
2023-03-20T09:47:37.503Z,16.29
2023-03-20T09:48:49.341Z,16.05
2023-03-20T09:50:00.225Z,15.40
2023-03-20T09:51:08.022Z,15.56
2023-03-20T09:52:19.523Z,15.87
2023-03-20T09:53:23.885Z,15.96
2023-03-20T09:54:40.441Z,16.01
2023-03-20T09:55:40.124Z,16.10
2023-03-20T09:56:44.914Z,15.34
2023-03-20T09:57:50.545Z,15.53
2023-03-20T09:58:58.483Z,15.55
2023-03-20T10:00:03.360Z,15.65
2023-03-20T10:01:12.466Z,16.12
2023-03-20T10:02:18.776Z,15.60
2023-03-20T10:03:23.931Z,15.31
2023-03-20T10:04:29.165Z,15.15
2023-03-20T10:05:34.405Z,15.47
2023-03-20T10:06:36.995Z,15.35
2023-03-20T10:07:40.121Z,15.69
2023-03-20T10:08:43.545Z,15.82
2023-03-20T10:09:47.452Z,15.91
2023-03-20T10:10:56.785Z,15.61
2023-03-20T10:12:09.580Z,15.68
2023-03-20T10:13:29.716Z,15.60
2023-03-20T10:14:37.483Z,15.75
2023-03-20T10:15:45.430Z,15.45
2023-03-20T10:16:52.539Z,15.46
2023-03-20T10:18:02.997Z,15.52
2023-03-20T10:19:07.921Z,15.13
2023-03-20T10:20:15.345Z,14.98
2023-03-20T10:21:21.499Z,15.11
2023-03-20T10:22:27.297Z,15.06
2023-03-20T10:23:37.641Z,15.23
2023-03-20T10:24:41.727Z,15.25
2023-03-20T10:25:50.312Z,15.19
2023-03-20T10:26:54.166Z,14.96
2023-03-20T10:28:05.039Z,14.75
2023-03-20T10:29:10.112Z,14.68
2023-03-20T10:30:14.286Z,14.97
2023-03-20T10:31:19.444Z,15.28
2023-03-20T10:32:23.610Z,15.21
2023-03-20T10:33:46.561Z,14.90
2023-03-20T10:34:50.820Z,14.91
2023-03-20T10:35:56.092Z,14.56
2023-03-20T10:37:01.378Z,14.65
2023-03-20T10:38:06.223Z,14.73
2023-03-20T10:39:23.211Z,14.67
2023-03-20T10:40:39.790Z,14.37
2023-03-20T10:41:44.967Z,14.56
2023-03-20T10:42:51.196Z,14.73
2023-03-20T10:43:56.242Z,15.06
2023-03-20T10:45:01.396Z,15.20
2023-03-20T10:46:06.409Z,15.04
2023-03-20T10:47:10.826Z,14.97
2023-03-20T10:48:17.525Z,15.02
2023-03-20T10:49:39.003Z,14.59
2023-03-20T10:50:43.932Z,14.72
2023-03-20T10:51:48.310Z,14.76
2023-03-20T10:52:54.406Z,14.63
2023-03-20T10:53:59.378Z,14.62
2023-03-20T10:55:07.305Z,14.76
2023-03-20T10:56:15.776Z,14.95
2023-03-20T10:57:25.440Z,15.05
2023-03-20T10:58:31.311Z,14.91
2023-03-20T10:59:40.635Z,14.99
2023-03-20T11:00:44.487Z,14.71
2023-03-20T11:01:47.904Z,14.63
2023-03-20T11:02:52.251Z,14.61
2023-03-20T11:03:57.935Z,14.73
2023-03-20T11:05:03.056Z,14.63
2023-03-20T11:06:10.452Z,14.80
2023-03-20T11:07:18.309Z,14.68
2023-03-20T11:08:23.561Z,14.43
2023-03-20T11:09:30.502Z,14.17
2023-03-20T11:10:34.038Z,14.33
2023-03-20T11:11:39.842Z,14.14
2023-03-20T11:12:44.058Z,14.16
2023-03-20T11:13:48.569Z,14.45
2023-03-20T11:14:53.456Z,14.61
2023-03-20T11:15:56.764Z,14.33
2023-03-20T11:17:01.974Z,14.31
2023-03-20T11:18:05.705Z,14.15
2023-03-20T11:19:10.142Z,14.13
2023-03-20T11:20:13.431Z,14.36
2023-03-20T11:21:27.327Z,14.34
2023-03-20T11:22:31.683Z,14.15
2023-03-20T11:23:36.765Z,14.10
2023-03-20T11:24:46.799Z,14.14
2023-03-20T11:25:56.349Z,14.15
2023-03-20T11:27:06.578Z,14.05
2023-03-20T11:28:19.140Z,14.01
2023-03-20T11:29:27.122Z,14.07
2023-03-20T11:30:30.480Z,14.24
2023-03-20T11:31:40.346Z,14.30
2023-03-20T11:32:48.250Z,14.30
2023-03-20T11:33:53.256Z,14.17
2023-03-20T11:34:56.937Z,14.04
2023-03-20T11:36:00.511Z,14.07
2023-03-20T11:37:10.534Z,13.75
2023-03-20T11:38:19.346Z,13.83
2023-03-20T11:39:27.532Z,13.96
2023-03-20T11:40:31.214Z,13.59
2023-03-20T11:41:35.473Z,13.33
2023-03-20T11:42:37.995Z,13.59
2023-03-20T11:43:42.333Z,13.64
2023-03-20T11:44:47.285Z,13.62
2023-03-20T11:45:59.033Z,13.67
2023-03-20T11:47:07.169Z,13.76
2023-03-20T11:48:21.192Z,13.82
2023-03-20T11:49:24.903Z,13.95
2023-03-20T11:50:35.879Z,14.06
2023-03-20T11:51:41.687Z,14.24
2023-03-20T11:52:44.076Z,14.13
2023-03-20T11:53:49.093Z,13.99
2023-03-20T11:54:55.849Z,13.98
2023-03-20T11:56:07.128Z,14.02
2023-03-20T11:57:11.455Z,13.99
2023-03-20T11:58:17.885Z,13.91
2023-03-20T11:59:23.039Z,14.04
2023-03-20T12:00:38.268Z,14.20
2023-03-20T12:01:48.561Z,14.12
2023-03-20T12:02:53.263Z,13.81
2023-03-20T12:04:03.483Z,13.69
2023-03-20T12:05:25.256Z,13.92
2023-03-20T12:06:30.002Z,13.99
2023-03-20T12:07:34.524Z,14.14
2023-03-20T12:08:39.569Z,14.04
2023-03-20T12:09:45.122Z,13.81
2023-03-20T12:10:53.015Z,13.66
2023-03-20T12:12:00.019Z,13.48
2023-03-20T12:13:20.021Z,13.73
2023-03-20T12:14:28.083Z,13.75
2023-03-20T12:15:33.782Z,13.93
2023-03-20T12:16:41.692Z,13.77
2023-03-20T12:17:59.560Z,13.60
2023-03-20T12:19:04.888Z,13.37
2023-03-20T12:20:13.477Z,13.64
2023-03-20T12:21:24.292Z,13.64
2023-03-20T12:22:28.905Z,13.70
2023-03-20T12:23:34.775Z,13.65
2023-03-20T12:24:40.200Z,13.57
2023-03-20T12:25:54.948Z,13.70
2023-03-20T12:27:02.232Z,13.78
2023-03-20T12:28:20.018Z,13.31
2023-03-20T12:29:26.339Z,13.44
2023-03-20T12:30:31.509Z,13.51
2023-03-20T12:31:40.128Z,13.41
2023-03-20T12:32:45.477Z,13.38
2023-03-20T12:33:50.698Z,13.32
2023-03-20T12:34:58.459Z,13.18
2023-03-20T12:36:01.644Z,13.31
2023-03-20T12:37:05.941Z,13.37
2023-03-20T12:38:16.546Z,13.41
2023-03-20T12:39:21.932Z,13.47
2023-03-20T12:40:28.000Z,13.46
2023-03-20T12:41:47.804Z,13.48
2023-03-20T12:43:07.810Z,13.56
2023-03-20T12:44:14.828Z,13.73
2023-03-20T12:45:25.654Z,13.75
2023-03-20T12:46:38.093Z,13.81
2023-03-20T12:47:46.030Z,13.55
2023-03-20T12:48:53.142Z,13.17
2023-03-20T12:50:00.269Z,13.30
2023-03-20T12:51:04.566Z,13.56
2023-03-20T12:52:12.696Z,13.44
2023-03-20T12:53:27.944Z,13.35
2023-03-20T12:54:34.905Z,13.29
2023-03-20T12:57:13.761Z,13.24
2023-03-20T12:58:18.758Z,13.17
2023-03-20T12:59:26.169Z,13.30
2023-03-20T13:00:32.700Z,13.33
2023-03-20T13:01:38.832Z,13.47
2023-03-20T13:02:50.619Z,13.48
2023-03-20T13:03:54.185Z,13.40
2023-03-20T13:05:02.603Z,13.27
2023-03-20T13:06:14.799Z,13.39
2023-03-20T13:07:20.387Z,13.56
2023-03-20T13:08:25.223Z,13.80
2023-03-20T13:09:36.503Z,13.91
2023-03-20T13:10:40.900Z,13.94
2023-03-20T13:11:52.605Z,13.89
2023-03-20T13:13:03.483Z,14.05
2023-03-20T13:14:10.122Z,13.90
2023-03-20T13:15:24.177Z,13.96
2023-03-20T13:16:37.875Z,13.80
2023-03-20T13:17:54.469Z,13.73
2023-03-20T13:19:02.898Z,13.65
2023-03-20T13:20:26.932Z,13.76
2023-03-20T13:21:37.901Z,13.97
2023-03-20T13:22:51.950Z,13.77
2023-03-20T13:24:15.402Z,13.50
2023-03-20T13:25:19.834Z,13.49
2023-03-20T13:26:34.968Z,13.43
2023-03-20T13:27:41.376Z,13.26
2023-03-20T13:28:49.387Z,13.26
2023-03-20T13:29:54.744Z,13.22
2023-03-20T13:31:00.229Z,13.29
2023-03-20T13:32:04.593Z,13.24
2023-03-20T13:33:27.882Z,13.23
2023-03-20T13:34:37.514Z,13.14
2023-03-20T13:35:43.094Z,13.25
2023-03-20T13:36:55.581Z,13.11
2023-03-20T13:38:00.861Z,13.27
2023-03-20T13:39:05.944Z,13.32
2023-03-20T13:40:20.846Z,13.32
2023-03-20T13:41:24.927Z,13.25
2023-03-20T13:42:30.538Z,13.10
2023-03-20T13:43:51.287Z,12.91
2023-03-20T13:44:57.822Z,13.15
2023-03-20T13:46:06.656Z,13.28
2023-03-20T13:47:12.200Z,13.16
2023-03-20T13:48:22.549Z,13.00
2023-03-20T13:49:30.328Z,13.05
2023-03-20T13:50:37.786Z,13.00
2023-03-20T13:51:44.749Z,13.03
2023-03-20T13:52:53.655Z,13.11
2023-03-20T13:53:58.769Z,13.13
2023-03-20T13:55:02.998Z,13.14
2023-03-20T13:56:07.748Z,13.16
2023-03-20T13:57:12.966Z,13.15
2023-03-20T13:58:35.240Z,13.09
2023-03-20T13:59:57.950Z,13.08
2023-03-20T14:01:19.175Z,13.09
2023-03-20T14:02:25.432Z,12.98
2023-03-20T14:03:39.724Z,12.99
2023-03-20T14:04:42.594Z,12.94
2023-03-20T14:05:47.239Z,12.99
2023-03-20T14:06:51.792Z,12.89
2023-03-20T14:07:56.220Z,12.88
2023-03-20T14:09:01.156Z,13.02
2023-03-20T14:10:25.912Z,13.09
2023-03-20T14:11:35.990Z,12.95
2023-03-20T14:12:39.487Z,12.95
2023-03-20T14:13:45.604Z,13.01
2023-03-20T14:14:54.653Z,13.05
2023-03-20T14:15:59.412Z,13.00
2023-03-20T14:17:20.154Z,12.89
2023-03-20T14:18:28.250Z,12.79
2023-03-20T14:19:40.025Z,12.58
2023-03-20T14:20:44.452Z,12.72
2023-03-20T14:21:49.202Z,12.76
2023-03-20T14:22:53.033Z,12.69
2023-03-20T14:24:01.139Z,12.70
2023-03-20T14:25:08.499Z,12.81
2023-03-20T14:26:12.621Z,12.85
2023-03-20T14:27:27.064Z,12.77
2023-03-20T14:28:28.700Z,12.50
2023-03-20T14:29:32.641Z,12.58
2023-03-20T14:30:40.475Z,12.71
2023-03-20T14:31:45.568Z,12.63
2023-03-20T14:32:49.861Z,12.60
2023-03-20T14:34:01.852Z,12.63
2023-03-20T14:35:08.977Z,12.65
2023-03-20T14:36:22.098Z,12.69
2023-03-20T14:37:30.194Z,12.54
2023-03-20T14:38:37.986Z,12.50